Mac Dill Air Force Base
KMCF : rendu visible

Aérodrome :











RETROUVEZ-NOUS SUR...

 
LOGIN :

S'inscrire | Disclaimer

   EN    FR    IT 

 









Légende :    VFR   VFR Marginal   IFR   IFR Intensif   IFR Très Intensif
Visi : 
Plafond : 
>= 8 km
>= 3000ft
5 à 8 km
1000 à 3000 ft
1500m à 5 km
500 à 1000 ft
800 à 1500m
200 à 500 ft
< 800m
< 200 ft
Symboles :   Orages  Brouillard  Fortes neiges  Fortes précipitations  Vent > 20 kt






- Altitude de l'aérodrome : 14 ft


KMCF - Mac Dill Air Force Base

DERNIER METAR :
  • 200356Z AUTO 00000KT 10SM CLR 13/11 A3006 RMK AO2 SLP182 T01250106 FZRANO $

METARs EXPIRÉS :
  • 200256Z AUTO 00000KT 10SM CLR 12/10 A3005 RMK AO2 SLP179 T01210103 52012 FZRANO $
  • 200156Z AUTO 00000KT 10SM CLR 12/10 A3005 RMK AO2 SLP179 T01170104 FZRANO $

TAF TAF KMCF
Valide du 20 à 01h jusqu'au 21 à 07h UTC


200100Z 2001/2107 VRB06KT 9999 SKC QNH3001INS
BECMG 2016/2017 35009KT 9999 SKC QNH3016INS
BECMG 2020/2021 VRB06KT 9999 SKC QNH3013INS TX23/2019Z TN12/2012Z



MET'MAP, la Météo Aéronautique d'un coup d'oeil ! - Copyright ORBIFLY Décembre 2007 - Disclaimer

ORBIFLY MET'MAP TEAM :

Programmation & Développement : Alexandra Zaïnal
Conception & Développement : Baudouin d'Aumeries
Co-Programmation & Développement : Marc-Olivier Méhu
Soutien technique & logistique : Manuel Goepfert

Contact : metmap@orbifly.com




SOURCES & CREDITS :

   NOAA       Earth
Advisory